sensor_id;sensor_type;location;lat;lon;timestamp;P1;durP1;ratioP1;P2;durP2;ratioP2
80217;SDS011;70450;37.974;23.708;2024-03-23T00:54:52;17.42;;;9.63;;
80217;SDS011;70450;37.974;23.708;2024-03-23T00:57:18;22.73;;;11.48;;
80217;SDS011;70450;37.974;23.708;2024-03-23T00:59:47;22.10;;;10.32;;
80217;SDS011;70450;37.974;23.708;2024-03-23T01:02:13;17.42;;;9.90;;
80217;SDS011;70450;37.974;23.708;2024-03-23T01:04:39;25.65;;;10.63;;
80217;SDS011;70450;37.974;23.708;2024-03-23T01:07:05;15.98;;;10.15;;
80217;SDS011;70450;37.974;23.708;2024-03-23T01:09:31;15.80;;;9.95;;
80217;SDS011;70450;37.974;23.708;2024-03-23T01:11:58;24.80;;;10.30;;
80217;SDS011;70450;37.974;23.708;2024-03-23T01:14:24;15.38;;;9.65;;
80217;SDS011;70450;37.974;23.708;2024-03-23T01:16:50;18.70;;;9.80;;
80217;SDS011;70450;37.974;23.708;2024-03-23T01:19:16;19.20;;;9.38;;
80217;SDS011;70450;37.974;23.708;2024-03-23T01:21:43;21.45;;;10.25;;
80217;SDS011;70450;37.974;23.708;2024-03-23T01:24:09;19.13;;;9.57;;
80217;SDS011;70450;37.974;23.708;2024-03-23T01:26:36;28.90;;;11.85;;
80217;SDS011;70450;37.974;23.708;2024-03-23T01:29:02;18.58;;;10.27;;
80217;SDS011;70450;37.974;23.708;2024-03-23T01:31:28;19.55;;;9.30;;
80217;SDS011;70450;37.974;23.708;2024-03-23T01:33:55;16.95;;;10.50;;
80217;SDS011;70450;37.974;23.708;2024-03-23T01:36:21;18.40;;;9.50;;
80217;SDS011;70450;37.974;23.708;2024-03-23T01:38:47;22.52;;;9.80;;
80217;SDS011;70450;37.974;23.708;2024-03-23T01:41:13;18.92;;;9.82;;
80217;SDS011;70450;37.974;23.708;2024-03-23T01:43:39;20.40;;;10.68;;
80217;SDS011;70450;37.974;23.708;2024-03-23T01:46:06;25.95;;;11.07;;
80217;SDS011;70450;37.974;23.708;2024-03-23T01:48:33;21.75;;;11.90;;
80217;SDS011;70450;37.974;23.708;2024-03-23T01:50:59;30.52;;;11.55;;
80217;SDS011;70450;37.974;23.708;2024-03-23T01:53:25;22.63;;;11.85;;
80217;SDS011;70450;37.974;23.708;2024-03-23T01:55:51;19.67;;;11.18;;
80217;SDS011;70450;37.974;23.708;2024-03-23T01:58:17;29.63;;;11.35;;
80217;SDS011;70450;37.974;23.708;2024-03-23T02:00:46;23.60;;;11.13;;
80217;SDS011;70450;37.974;23.708;2024-03-23T02:03:25;25.70;;;11.27;;
80217;SDS011;70450;37.974;23.708;2024-03-23T02:05:55;17.58;;;10.10;;
80217;SDS011;70450;37.974;23.708;2024-03-23T02:08:22;23.63;;;10.82;;
80217;SDS011;70450;37.974;23.708;2024-03-23T02:10:50;21.95;;;10.98;;
80217;SDS011;70450;37.974;23.708;2024-03-23T02:13:17;14.57;;;9.48;;
80217;SDS011;70450;37.974;23.708;2024-03-23T02:15:44;18.92;;;10.75;;
80217;SDS011;70450;37.974;23.708;2024-03-23T02:18:11;17.70;;;10.90;;
80217;SDS011;70450;37.974;23.708;2024-03-23T02:20:37;19.25;;;11.05;;
80217;SDS011;70450;37.974;23.708;2024-03-23T02:23:04;22.92;;;12.05;;
80217;SDS011;70450;37.974;23.708;2024-03-23T02:25:33;20.95;;;11.23;;
80217;SDS011;70450;37.974;23.708;2024-03-23T02:28:02;17.83;;;10.10;;
80217;SDS011;70450;37.974;23.708;2024-03-23T02:30:28;20.63;;;11.95;;
80217;SDS011;70450;37.974;23.708;2024-03-23T02:32:55;19.27;;;10.38;;
80217;SDS011;70450;37.974;23.708;2024-03-23T02:35:21;17.85;;;10.90;;
80217;SDS011;70450;37.974;23.708;2024-03-23T02:37:47;18.10;;;11.10;;
80217;SDS011;70450;37.974;23.708;2024-03-23T02:40:15;19.88;;;12.82;;
80217;SDS011;70450;37.974;23.708;2024-03-23T02:42:41;22.45;;;11.57;;
80217;SDS011;70450;37.974;23.708;2024-03-23T02:45:07;25.50;;;11.82;;
80217;SDS011;70450;37.974;23.708;2024-03-23T02:47:34;19.48;;;10.55;;
80217;SDS011;70450;37.974;23.708;2024-03-23T02:50:00;21.38;;;10.80;;
80217;SDS011;70450;37.974;23.708;2024-03-23T02:52:27;18.92;;;10.68;;
80217;SDS011;70450;37.974;23.708;2024-03-23T02:54:53;21.85;;;10.82;;
80217;SDS011;70450;37.974;23.708;2024-03-23T02:57:19;20.80;;;10.85;;
80217;SDS011;70450;37.974;23.708;2024-03-23T02:59:45;18.30;;;10.40;;
80217;SDS011;70450;37.974;23.708;2024-03-23T03:02:12;18.42;;;11.73;;
80217;SDS011;70450;37.974;23.708;2024-03-23T03:04:39;22.67;;;11.50;;
80217;SDS011;70450;37.974;23.708;2024-03-23T03:07:05;18.05;;;11.48;;
80217;SDS011;70450;37.974;23.708;2024-03-23T03:09:33;19.27;;;10.52;;
80217;SDS011;70450;37.974;23.708;2024-03-23T03:12:03;18.38;;;11.20;;
80217;SDS011;70450;37.974;23.708;2024-03-23T03:14:33;20.88;;;12.27;;
80217;SDS011;70450;37.974;23.708;2024-03-23T03:16:59;20.25;;;11.77;;
80217;SDS011;70450;37.974;23.708;2024-03-23T03:19:29;21.40;;;11.07;;
80217;SDS011;70450;37.974;23.708;2024-03-23T03:21:55;19.25;;;11.63;;
80217;SDS011;70450;37.974;23.708;2024-03-23T03:24:21;24.08;;;11.68;;
80217;SDS011;70450;37.974;23.708;2024-03-23T03:26:50;22.10;;;10.38;;
80217;SDS011;70450;37.974;23.708;2024-03-23T03:29:16;20.63;;;10.45;;
80217;SDS011;70450;37.974;23.708;2024-03-23T03:31:43;21.20;;;12.05;;
80217;SDS011;70450;37.974;23.708;2024-03-23T03:34:09;23.83;;;12.02;;
80217;SDS011;70450;37.974;23.708;2024-03-23T03:36:35;21.17;;;11.57;;
80217;SDS011;70450;37.974;23.708;2024-03-23T03:39:04;22.50;;;12.38;;
80217;SDS011;70450;37.974;23.708;2024-03-23T03:41:31;20.05;;;12.50;;
80217;SDS011;70450;37.974;23.708;2024-03-23T03:43:58;27.13;;;13.07;;
80217;SDS011;70450;37.974;23.708;2024-03-23T03:46:30;24.05;;;12.88;;
80217;SDS011;70450;37.974;23.708;2024-03-23T03:48:56;24.70;;;12.70;;
80217;SDS011;70450;37.974;23.708;2024-03-23T03:51:25;25.25;;;12.95;;
80217;SDS011;70450;37.974;23.708;2024-03-23T03:53:51;22.90;;;13.50;;
80217;SDS011;70450;37.974;23.708;2024-03-23T03:56:17;26.95;;;11.40;;
80217;SDS011;70450;37.974;23.708;2024-03-23T03:58:43;21.55;;;13.35;;
80217;SDS011;70450;37.974;23.708;2024-03-23T04:01:09;22.50;;;11.90;;
80217;SDS011;70450;37.974;23.708;2024-03-23T04:03:36;24.55;;;11.73;;
80217;SDS011;70450;37.974;23.708;2024-03-23T04:06:09;15.65;;;8.77;;
80217;SDS011;70450;37.974;23.708;2024-03-23T04:08:35;19.35;;;11.27;;
80217;SDS011;70450;37.974;23.708;2024-03-23T04:11:04;20.23;;;11.02;;
80217;SDS011;70450;37.974;23.708;2024-03-23T04:13:31;19.85;;;11.23;;
80217;SDS011;70450;37.974;23.708;2024-03-23T04:15:57;17.92;;;10.90;;
80217;SDS011;70450;37.974;23.708;2024-03-23T04:18:25;20.88;;;10.93;;
80217;SDS011;70450;37.974;23.708;2024-03-23T04:20:51;15.98;;;9.77;;
80217;SDS011;70450;37.974;23.708;2024-03-23T04:23:17;16.42;;;9.35;;
80217;SDS011;70450;37.974;23.708;2024-03-23T04:25:44;17.42;;;10.05;;
80217;SDS011;70450;37.974;23.708;2024-03-23T04:28:10;19.00;;;10.07;;
80217;SDS011;70450;37.974;23.708;2024-03-23T04:30:36;16.67;;;9.40;;
80217;SDS011;70450;37.974;23.708;2024-03-23T04:33:02;18.88;;;9.27;;
80217;SDS011;70450;37.974;23.708;2024-03-23T04:35:31;19.00;;;9.18;;
80217;SDS011;70450;37.974;23.708;2024-03-23T04:37:58;13.88;;;8.57;;
80217;SDS011;70450;37.974;23.708;2024-03-23T04:40:24;15.48;;;9.38;;
80217;SDS011;70450;37.974;23.708;2024-03-23T04:42:51;14.13;;;8.85;;
80217;SDS011;70450;37.974;23.708;2024-03-23T04:45:17;16.75;;;9.30;;
80217;SDS011;70450;37.974;23.708;2024-03-23T04:47:43;13.60;;;8.52;;
80217;SDS011;70450;37.974;23.708;2024-03-23T04:50:10;13.35;;;8.60;;
80217;SDS011;70450;37.974;23.708;2024-03-23T04:52:38;14.10;;;8.13;;
80217;SDS011;70450;37.974;23.708;2024-03-23T04:55:05;13.15;;;8.57;;
80217;SDS011;70450;37.974;23.708;2024-03-23T04:57:31;12.15;;;8.10;;
80217;SDS011;70450;37.974;23.708;2024-03-23T04:59:57;14.27;;;9.32;;
80217;SDS011;70450;37.974;23.708;2024-03-23T05:02:23;16.63;;;9.43;;
80217;SDS011;70450;37.974;23.708;2024-03-23T05:04:52;12.77;;;7.05;;
80217;SDS011;70450;37.974;23.708;2024-03-23T05:07:19;22.95;;;9.30;;
80217;SDS011;70450;37.974;23.708;2024-03-23T05:09:45;14.80;;;8.30;;
80217;SDS011;70450;37.974;23.708;2024-03-23T05:12:11;16.13;;;8.15;;
80217;SDS011;70450;37.974;23.708;2024-03-23T05:14:37;14.98;;;8.23;;
80217;SDS011;70450;37.974;23.708;2024-03-23T05:17:03;16.35;;;8.35;;
80217;SDS011;70450;37.974;23.708;2024-03-23T05:19:30;15.90;;;8.20;;
80217;SDS011;70450;37.974;23.708;2024-03-23T05:21:56;16.05;;;9.00;;
80217;SDS011;70450;37.974;23.708;2024-03-23T05:24:22;18.77;;;8.90;;
80217;SDS011;70450;37.974;23.708;2024-03-23T05:26:48;16.17;;;8.90;;
80217;SDS011;70450;37.974;23.708;2024-03-23T05:29:14;18.20;;;9.38;;
80217;SDS011;70450;37.974;23.708;2024-03-23T05:31:42;17.17;;;8.55;;
80217;SDS011;70450;37.974;23.708;2024-03-23T05:34:09;17.90;;;9.50;;
80217;SDS011;70450;37.974;23.708;2024-03-23T05:36:35;14.10;;;7.78;;
80217;SDS011;70450;37.974;23.708;2024-03-23T05:39:02;14.10;;;8.38;;
80217;SDS011;70450;37.974;23.708;2024-03-23T05:41:29;15.90;;;8.50;;
80217;SDS011;70450;37.974;23.708;2024-03-23T05:43:55;12.43;;;8.25;;
80217;SDS011;70450;37.974;23.708;2024-03-23T05:46:21;14.27;;;8.13;;
80217;SDS011;70450;37.974;23.708;2024-03-23T05:48:47;17.20;;;8.75;;
80217;SDS011;70450;37.974;23.708;2024-03-23T05:51:14;15.35;;;8.50;;
80217;SDS011;70450;37.974;23.708;2024-03-23T05:53:41;16.80;;;8.73;;
80217;SDS011;70450;37.974;23.708;2024-03-23T05:56:07;19.40;;;9.05;;
80217;SDS011;70450;37.974;23.708;2024-03-23T05:58:36;18.08;;;9.13;;
80217;SDS011;70450;37.974;23.708;2024-03-23T06:01:02;21.52;;;10.02;;
80217;SDS011;70450;37.974;23.708;2024-03-23T06:03:29;16.10;;;10.00;;
80217;SDS011;70450;37.974;23.708;2024-03-23T06:05:57;16.25;;;10.02;;
80217;SDS011;70450;37.974;23.708;2024-03-23T06:08:23;12.57;;;7.97;;
80217;SDS011;70450;37.974;23.708;2024-03-23T06:10:50;14.57;;;7.03;;
80217;SDS011;70450;37.974;23.708;2024-03-23T06:13:16;14.27;;;8.10;;
80217;SDS011;70450;37.974;23.708;2024-03-23T06:15:45;15.05;;;9.02;;
80217;SDS011;70450;37.974;23.708;2024-03-23T06:18:12;19.63;;;7.78;;
80217;SDS011;70450;37.974;23.708;2024-03-23T06:20:38;19.20;;;8.55;;
80217;SDS011;70450;37.974;23.708;2024-03-23T06:23:04;17.23;;;8.80;;
80217;SDS011;70450;37.974;23.708;2024-03-23T06:25:31;14.20;;;8.18;;
80217;SDS011;70450;37.974;23.708;2024-03-23T06:27:57;17.35;;;8.65;;
80217;SDS011;70450;37.974;23.708;2024-03-23T06:30:27;17.05;;;8.52;;
80217;SDS011;70450;37.974;23.708;2024-03-23T06:32:55;14.07;;;8.70;;
80217;SDS011;70450;37.974;23.708;2024-03-23T06:35:23;14.55;;;8.65;;
80217;SDS011;70450;37.974;23.708;2024-03-23T06:37:49;13.77;;;8.48;;
80217;SDS011;70450;37.974;23.708;2024-03-23T06:40:15;15.88;;;8.77;;
80217;SDS011;70450;37.974;23.708;2024-03-23T06:42:42;12.43;;;7.97;;
80217;SDS011;70450;37.974;23.708;2024-03-23T06:45:10;25.02;;;10.05;;
80217;SDS011;70450;37.974;23.708;2024-03-23T06:47:36;15.75;;;8.80;;
80217;SDS011;70450;37.974;23.708;2024-03-23T06:50:03;19.15;;;9.95;;
80217;SDS011;70450;37.974;23.708;2024-03-23T06:52:30;17.55;;;10.82;;
80217;SDS011;70450;37.974;23.708;2024-03-23T06:54:56;16.13;;;9.77;;
80217;SDS011;70450;37.974;23.708;2024-03-23T06:57:25;15.57;;;8.38;;
80217;SDS011;70450;37.974;23.708;2024-03-23T06:59:51;16.17;;;9.02;;
80217;SDS011;70450;37.974;23.708;2024-03-23T07:02:17;17.10;;;8.95;;
80217;SDS011;70450;37.974;23.708;2024-03-23T07:04:43;15.48;;;8.32;;
80217;SDS011;70450;37.974;23.708;2024-03-23T07:07:10;13.43;;;9.27;;
80217;SDS011;70450;37.974;23.708;2024-03-23T07:09:38;18.15;;;10.23;;
80217;SDS011;70450;37.974;23.708;2024-03-23T07:12:05;18.48;;;9.45;;
80217;SDS011;70450;37.974;23.708;2024-03-23T07:14:31;26.58;;;12.05;;
80217;SDS011;70450;37.974;23.708;2024-03-23T07:17:00;15.82;;;9.20;;
80217;SDS011;70450;37.974;23.708;2024-03-23T07:19:28;18.98;;;11.40;;
80217;SDS011;70450;37.974;23.708;2024-03-23T07:21:54;16.88;;;8.80;;
80217;SDS011;70450;37.974;23.708;2024-03-23T07:24:21;16.08;;;9.00;;
80217;SDS011;70450;37.974;23.708;2024-03-23T07:26:47;20.67;;;9.25;;
80217;SDS011;70450;37.974;23.708;2024-03-23T07:29:13;16.67;;;9.95;;
80217;SDS011;70450;37.974;23.708;2024-03-23T07:31:39;20.92;;;8.90;;
80217;SDS011;70450;37.974;23.708;2024-03-23T07:34:07;16.75;;;8.63;;
80217;SDS011;70450;37.974;23.708;2024-03-23T07:36:33;15.55;;;8.45;;
80217;SDS011;70450;37.974;23.708;2024-03-23T07:39:00;14.88;;;9.65;;
80217;SDS011;70450;37.974;23.708;2024-03-23T07:41:26;12.88;;;7.63;;
80217;SDS011;70450;37.974;23.708;2024-03-23T07:43:53;13.63;;;8.93;;
80217;SDS011;70450;37.974;23.708;2024-03-23T07:46:20;15.38;;;8.13;;
80217;SDS011;70450;37.974;23.708;2024-03-23T07:48:46;20.98;;;7.88;;
80217;SDS011;70450;37.974;23.708;2024-03-23T07:51:16;10.88;;;7.05;;
80217;SDS011;70450;37.974;23.708;2024-03-23T07:53:44;12.88;;;7.20;;
80217;SDS011;70450;37.974;23.708;2024-03-23T07:56:12;11.68;;;7.82;;
80217;SDS011;70450;37.974;23.708;2024-03-23T07:58:40;11.25;;;7.63;;
80217;SDS011;70450;37.974;23.708;2024-03-23T08:01:17;12.80;;;7.55;;
80217;SDS011;70450;37.974;23.708;2024-03-23T08:03:43;15.02;;;8.55;;
80217;SDS011;70450;37.974;23.708;2024-03-23T08:06:11;15.35;;;8.05;;
80217;SDS011;70450;37.974;23.708;2024-03-23T08:08:41;14.10;;;8.40;;
80217;SDS011;70450;37.974;23.708;2024-03-23T08:11:08;13.65;;;7.85;;
80217;SDS011;70450;37.974;23.708;2024-03-23T08:13:35;11.05;;;8.02;;
80217;SDS011;70450;37.974;23.708;2024-03-23T08:16:04;19.65;;;8.38;;
80217;SDS011;70450;37.974;23.708;2024-03-23T08:18:30;32.42;;;18.90;;
80217;SDS011;70450;37.974;23.708;2024-03-23T08:21:00;17.67;;;8.30;;
80217;SDS011;70450;37.974;23.708;2024-03-23T08:23:28;36.75;;;22.42;;
80217;SDS011;70450;37.974;23.708;2024-03-23T08:25:59;11.20;;;7.90;;
80217;SDS011;70450;37.974;23.708;2024-03-23T08:28:26;16.02;;;8.07;;
80217;SDS011;70450;37.974;23.708;2024-03-23T08:30:53;12.98;;;7.15;;
80217;SDS011;70450;37.974;23.708;2024-03-23T08:33:21;17.35;;;8.02;;
80217;SDS011;70450;37.974;23.708;2024-03-23T08:35:55;12.73;;;8.65;;
80217;SDS011;70450;37.974;23.708;2024-03-23T08:38:22;12.98;;;7.40;;
80217;SDS011;70450;37.974;23.708;2024-03-23T08:41:02;24.77;;;7.95;;
80217;SDS011;70450;37.974;23.708;2024-03-23T08:43:30;19.10;;;8.88;;
80217;SDS011;70450;37.974;23.708;2024-03-23T08:46:05;11.95;;;7.30;;
80217;SDS011;70450;37.974;23.708;2024-03-23T08:48:36;20.17;;;11.55;;
80217;SDS011;70450;37.974;23.708;2024-03-23T08:51:15;14.73;;;7.72;;
80217;SDS011;70450;37.974;23.708;2024-03-23T08:53:42;10.45;;;7.40;;
80217;SDS011;70450;37.974;23.708;2024-03-23T08:56:11;18.83;;;8.43;;
80217;SDS011;70450;37.974;23.708;2024-03-23T08:58:38;14.35;;;6.85;;
80217;SDS011;70450;37.974;23.708;2024-03-23T09:01:11;16.08;;;8.25;;
80217;SDS011;70450;37.974;23.708;2024-03-23T09:03:40;11.27;;;6.80;;
80217;SDS011;70450;37.974;23.708;2024-03-23T09:06:11;15.40;;;7.10;;
80217;SDS011;70450;37.974;23.708;2024-03-23T09:08:38;15.57;;;8.00;;
80217;SDS011;70450;37.974;23.708;2024-03-23T09:11:06;17.88;;;9.27;;
80217;SDS011;70450;37.974;23.708;2024-03-23T09:13:34;18.65;;;8.35;;
80217;SDS011;70450;37.974;23.708;2024-03-23T09:16:01;14.63;;;7.63;;
80217;SDS011;70450;37.974;23.708;2024-03-23T09:18:30;13.23;;;8.80;;
80217;SDS011;70450;37.974;23.708;2024-03-23T09:21:00;14.27;;;7.05;;
80217;SDS011;70450;37.974;23.708;2024-03-23T09:23:27;13.10;;;8.05;;
80217;SDS011;70450;37.974;23.708;2024-03-23T09:25:56;14.45;;;8.43;;
80217;SDS011;70450;37.974;23.708;2024-03-23T09:28:22;14.73;;;7.78;;
80217;SDS011;70450;37.974;23.708;2024-03-23T09:30:48;16.65;;;7.93;;
80217;SDS011;70450;37.974;23.708;2024-03-23T09:33:14;18.58;;;9.05;;
80217;SDS011;70450;37.974;23.708;2024-03-23T09:35:41;18.77;;;7.88;;
80217;SDS011;70450;37.974;23.708;2024-03-23T09:38:12;13.10;;;7.38;;
80217;SDS011;70450;37.974;23.708;2024-03-23T09:40:41;15.35;;;8.10;;
80217;SDS011;70450;37.974;23.708;2024-03-23T09:43:08;15.45;;;7.30;;
80217;SDS011;70450;37.974;23.708;2024-03-23T09:45:36;12.93;;;7.35;;
80217;SDS011;70450;37.974;23.708;2024-03-23T09:48:06;14.93;;;8.35;;
80217;SDS011;70450;37.974;23.708;2024-03-23T09:50:35;16.73;;;7.03;;
80217;SDS011;70450;37.974;23.708;2024-03-23T09:53:09;15.70;;;7.68;;
80217;SDS011;70450;37.974;23.708;2024-03-23T09:55:40;17.98;;;7.38;;
80217;SDS011;70450;37.974;23.708;2024-03-23T09:58:08;13.30;;;7.10;;
80217;SDS011;70450;37.974;23.708;2024-03-23T10:00:37;29.85;;;17.98;;
80217;SDS011;70450;37.974;23.708;2024-03-23T10:03:04;13.85;;;6.90;;
80217;SDS011;70450;37.974;23.708;2024-03-23T10:05:32;11.10;;;7.25;;
80217;SDS011;70450;37.974;23.708;2024-03-23T10:10:43;16.02;;;8.05;;
80217;SDS011;70450;37.974;23.708;2024-03-23T10:13:10;14.45;;;8.70;;
80217;SDS011;70450;37.974;23.708;2024-03-23T10:15:40;15.57;;;7.40;;
80217;SDS011;70450;37.974;23.708;2024-03-23T10:20:51;14.27;;;6.97;;
80217;SDS011;70450;37.974;23.708;2024-03-23T10:23:35;14.73;;;7.70;;
80217;SDS011;70450;37.974;23.708;2024-03-23T10:28:53;13.73;;;6.78;;
80217;SDS011;70450;37.974;23.708;2024-03-23T10:31:32;23.13;;;7.32;;
80217;SDS011;70450;37.974;23.708;2024-03-23T10:33:59;13.82;;;7.38;;
80217;SDS011;70450;37.974;23.708;2024-03-23T10:36:26;15.63;;;6.57;;
80217;SDS011;70450;37.974;23.708;2024-03-23T10:38:53;9.80;;;6.78;;
80217;SDS011;70450;37.974;23.708;2024-03-23T10:41:20;10.15;;;6.15;;
80217;SDS011;70450;37.974;23.708;2024-03-23T10:43:47;13.77;;;6.30;;
80217;SDS011;70450;37.974;23.708;2024-03-23T10:46:14;12.18;;;6.78;;
80217;SDS011;70450;37.974;23.708;2024-03-23T10:48:41;12.90;;;5.82;;
80217;SDS011;70450;37.974;23.708;2024-03-23T10:51:09;9.00;;;5.40;;
80217;SDS011;70450;37.974;23.708;2024-03-23T10:53:36;11.50;;;7.10;;
80217;SDS011;70450;37.974;23.708;2024-03-23T10:56:03;11.88;;;6.10;;
80217;SDS011;70450;37.974;23.708;2024-03-23T10:58:37;9.82;;;5.72;;
80217;SDS011;70450;37.974;23.708;2024-03-23T11:01:06;16.42;;;7.07;;
80217;SDS011;70450;37.974;23.708;2024-03-23T11:03:33;12.77;;;7.18;;
80217;SDS011;70450;37.974;23.708;2024-03-23T11:06:03;7.72;;;5.30;;
80217;SDS011;70450;37.974;23.708;2024-03-23T11:08:39;9.43;;;5.50;;
80217;SDS011;70450;37.974;23.708;2024-03-23T11:11:22;10.15;;;5.75;;
80217;SDS011;70450;37.974;23.708;2024-03-23T11:13:51;9.10;;;5.43;;
80217;SDS011;70450;37.974;23.708;2024-03-23T11:16:22;7.63;;;5.68;;
80217;SDS011;70450;37.974;23.708;2024-03-23T11:22:04;7.67;;;5.73;;
80217;SDS011;70450;37.974;23.708;2024-03-23T11:24:31;10.15;;;6.47;;
80217;SDS011;70450;37.974;23.708;2024-03-23T11:26:58;9.90;;;5.70;;
80217;SDS011;70450;37.974;23.708;2024-03-23T11:29:27;12.13;;;5.28;;
80217;SDS011;70450;37.974;23.708;2024-03-23T11:31:55;9.52;;;5.88;;
80217;SDS011;70450;37.974;23.708;2024-03-23T11:34:21;5.30;;;4.80;;
80217;SDS011;70450;37.974;23.708;2024-03-23T11:36:48;8.50;;;5.75;;
80217;SDS011;70450;37.974;23.708;2024-03-23T11:39:16;16.63;;;6.15;;
80217;SDS011;70450;37.974;23.708;2024-03-23T11:44:19;12.75;;;7.53;;
80217;SDS011;70450;37.974;23.708;2024-03-23T11:46:48;8.10;;;5.75;;
80217;SDS011;70450;37.974;23.708;2024-03-23T11:49:21;6.28;;;5.05;;
80217;SDS011;70450;37.974;23.708;2024-03-23T11:51:53;8.32;;;5.20;;
80217;SDS011;70450;37.974;23.708;2024-03-23T11:54:24;7.93;;;5.53;;
80217;SDS011;70450;37.974;23.708;2024-03-23T11:56:55;10.02;;;5.35;;
80217;SDS011;70450;37.974;23.708;2024-03-23T11:59:34;7.30;;;4.88;;
80217;SDS011;70450;37.974;23.708;2024-03-23T12:02:07;5.22;;;4.40;;
80217;SDS011;70450;37.974;23.708;2024-03-23T12:04:35;6.50;;;4.65;;
80217;SDS011;70450;37.974;23.708;2024-03-23T12:07:15;5.45;;;4.13;;
80217;SDS011;70450;37.974;23.708;2024-03-23T12:10:06;6.22;;;5.35;;
80217;SDS011;70450;37.974;23.708;2024-03-23T12:12:32;10.07;;;6.60;;
80217;SDS011;70450;37.974;23.708;2024-03-23T12:15:05;7.63;;;5.30;;
80217;SDS011;70450;37.974;23.708;2024-03-23T12:17:34;9.18;;;4.97;;
80217;SDS011;70450;37.974;23.708;2024-03-23T12:20:01;7.38;;;4.00;;
80217;SDS011;70450;37.974;23.708;2024-03-23T12:22:27;17.73;;;6.10;;
80217;SDS011;70450;37.974;23.708;2024-03-23T12:24:55;12.07;;;5.70;;
80217;SDS011;70450;37.974;23.708;2024-03-23T12:27:23;5.65;;;4.38;;
80217;SDS011;70450;37.974;23.708;2024-03-23T12:29:49;10.70;;;4.97;;
80217;SDS011;70450;37.974;23.708;2024-03-23T12:32:15;5.68;;;4.43;;
80217;SDS011;70450;37.974;23.708;2024-03-23T12:34:41;7.85;;;5.30;;
80217;SDS011;70450;37.974;23.708;2024-03-23T12:37:08;8.15;;;4.65;;
80217;SDS011;70450;37.974;23.708;2024-03-23T12:39:34;5.65;;;4.40;;
80217;SDS011;70450;37.974;23.708;2024-03-23T12:42:01;8.27;;;4.80;;
80217;SDS011;70450;37.974;23.708;2024-03-23T12:44:31;9.32;;;7.40;;
80217;SDS011;70450;37.974;23.708;2024-03-23T12:46:57;7.05;;;3.97;;
80217;SDS011;70450;37.974;23.708;2024-03-23T12:49:23;6.78;;;4.70;;
80217;SDS011;70450;37.974;23.708;2024-03-23T12:51:55;10.45;;;4.40;;
80217;SDS011;70450;37.974;23.708;2024-03-23T12:54:22;5.82;;;3.63;;
80217;SDS011;70450;37.974;23.708;2024-03-23T12:56:51;6.22;;;3.33;;
80217;SDS011;70450;37.974;23.708;2024-03-23T12:59:17;4.00;;;3.03;;
80217;SDS011;70450;37.974;23.708;2024-03-23T13:01:44;8.93;;;4.50;;
80217;SDS011;70450;37.974;23.708;2024-03-23T13:04:11;4.72;;;3.45;;
80217;SDS011;70450;37.974;23.708;2024-03-23T13:06:37;4.15;;;3.75;;
80217;SDS011;70450;37.974;23.708;2024-03-23T13:09:04;6.47;;;3.50;;
80217;SDS011;70450;37.974;23.708;2024-03-23T13:11:30;8.93;;;6.60;;
80217;SDS011;70450;37.974;23.708;2024-03-23T13:13:57;5.65;;;4.18;;
80217;SDS011;70450;37.974;23.708;2024-03-23T13:16:23;9.73;;;4.00;;
80217;SDS011;70450;37.974;23.708;2024-03-23T13:18:49;3.63;;;3.20;;
80217;SDS011;70450;37.974;23.708;2024-03-23T13:21:16;11.43;;;3.90;;
80217;SDS011;70450;37.974;23.708;2024-03-23T13:23:42;5.70;;;3.38;;
80217;SDS011;70450;37.974;23.708;2024-03-23T13:26:13;6.38;;;3.35;;
80217;SDS011;70450;37.974;23.708;2024-03-23T13:28:39;7.57;;;3.58;;
80217;SDS011;70450;37.974;23.708;2024-03-23T13:31:06;7.72;;;6.93;;
80217;SDS011;70450;37.974;23.708;2024-03-23T13:33:34;5.65;;;3.88;;
80217;SDS011;70450;37.974;23.708;2024-03-23T13:36:00;7.50;;;4.10;;
80217;SDS011;70450;37.974;23.708;2024-03-23T13:38:27;10.07;;;5.00;;
80217;SDS011;70450;37.974;23.708;2024-03-23T13:40:57;7.18;;;6.05;;
80217;SDS011;70450;37.974;23.708;2024-03-23T13:43:25;8.85;;;6.22;;
80217;SDS011;70450;37.974;23.708;2024-03-23T13:45:59;18.02;;;7.07;;
80217;SDS011;70450;37.974;23.708;2024-03-23T13:51:01;6.53;;;4.75;;
80217;SDS011;70450;37.974;23.708;2024-03-23T13:53:29;8.68;;;6.20;;
80217;SDS011;70450;37.974;23.708;2024-03-23T13:55:56;7.82;;;5.55;;
80217;SDS011;70450;37.974;23.708;2024-03-23T13:58:22;10.07;;;5.35;;
80217;SDS011;70450;37.974;23.708;2024-03-23T14:00:51;10.70;;;5.55;;
80217;SDS011;70450;37.974;23.708;2024-03-23T14:03:18;11.07;;;5.85;;
80217;SDS011;70450;37.974;23.708;2024-03-23T14:05:45;17.70;;;9.10;;
80217;SDS011;70450;37.974;23.708;2024-03-23T14:08:12;6.05;;;5.15;;
80217;SDS011;70450;37.974;23.708;2024-03-23T14:10:42;5.30;;;4.63;;
80217;SDS011;70450;37.974;23.708;2024-03-23T14:13:09;9.23;;;3.80;;
80217;SDS011;70450;37.974;23.708;2024-03-23T14:15:35;8.85;;;4.10;;
80217;SDS011;70450;37.974;23.708;2024-03-23T14:18:04;7.30;;;3.92;;
80217;SDS011;70450;37.974;23.708;2024-03-23T14:20:31;8.80;;;4.43;;
80217;SDS011;70450;37.974;23.708;2024-03-23T14:22:57;7.68;;;3.13;;
80217;SDS011;70450;37.974;23.708;2024-03-23T14:25:23;6.13;;;3.50;;
80217;SDS011;70450;37.974;23.708;2024-03-23T14:27:52;10.88;;;3.95;;
80217;SDS011;70450;37.974;23.708;2024-03-23T14:30:19;5.63;;;3.50;;
80217;SDS011;70450;37.974;23.708;2024-03-23T14:32:45;10.10;;;3.92;;
80217;SDS011;70450;37.974;23.708;2024-03-23T14:35:11;4.93;;;3.45;;
80217;SDS011;70450;37.974;23.708;2024-03-23T14:37:37;7.93;;;3.65;;
80217;SDS011;70450;37.974;23.708;2024-03-23T14:40:04;6.50;;;4.22;;
80217;SDS011;70450;37.974;23.708;2024-03-23T14:42:31;8.35;;;3.25;;
80217;SDS011;70450;37.974;23.708;2024-03-23T14:44:58;9.18;;;3.75;;
80217;SDS011;70450;37.974;23.708;2024-03-23T14:47:26;4.07;;;3.35;;
80217;SDS011;70450;37.974;23.708;2024-03-23T14:49:53;8.18;;;3.95;;
80217;SDS011;70450;37.974;23.708;2024-03-23T14:52:24;3.38;;;2.97;;
80217;SDS011;70450;37.974;23.708;2024-03-23T14:54:50;5.78;;;2.97;;
80217;SDS011;70450;37.974;23.708;2024-03-23T14:57:17;4.60;;;2.78;;
80217;SDS011;70450;37.974;23.708;2024-03-23T14:59:44;3.78;;;2.83;;
80217;SDS011;70450;37.974;23.708;2024-03-23T15:02:10;4.10;;;2.30;;
80217;SDS011;70450;37.974;23.708;2024-03-23T15:04:38;3.78;;;3.00;;
80217;SDS011;70450;37.974;23.708;2024-03-23T15:07:07;8.90;;;2.63;;
80217;SDS011;70450;37.974;23.708;2024-03-23T15:09:33;4.22;;;2.30;;
80217;SDS011;70450;37.974;23.708;2024-03-23T15:12:00;4.05;;;2.35;;
80217;SDS011;70450;37.974;23.708;2024-03-23T15:14:26;10.90;;;3.30;;
80217;SDS011;70450;37.974;23.708;2024-03-23T15:16:52;3.83;;;2.67;;
80217;SDS011;70450;37.974;23.708;2024-03-23T15:19:19;4.80;;;2.63;;
80217;SDS011;70450;37.974;23.708;2024-03-23T15:21:45;6.60;;;3.00;;
80217;SDS011;70450;37.974;23.708;2024-03-23T15:24:12;8.55;;;2.83;;
80217;SDS011;70450;37.974;23.708;2024-03-23T15:26:38;5.28;;;3.28;;
80217;SDS011;70450;37.974;23.708;2024-03-23T15:29:04;4.35;;;2.92;;
80217;SDS011;70450;37.974;23.708;2024-03-23T15:31:37;10.85;;;4.80;;
80217;SDS011;70450;37.974;23.708;2024-03-23T15:34:03;6.20;;;3.80;;